sensor_id;sensor_type;location;lat;lon;timestamp;temperature;humidity
37310;DHT22;23195;47.744;7.358;2023-02-23T06:46:24;9.60;99.90
37310;DHT22;23195;47.744;7.358;2023-02-23T06:48:54;9.50;99.90
37310;DHT22;23195;47.744;7.358;2023-02-23T06:51:20;9.60;99.90
37310;DHT22;23195;47.744;7.358;2023-02-23T06:53:48;9.60;99.90
37310;DHT22;23195;47.744;7.358;2023-02-23T06:56:14;9.60;99.90
37310;DHT22;23195;47.744;7.358;2023-02-23T06:58:50;9.70;99.90
37310;DHT22;23195;47.744;7.358;2023-02-23T07:01:16;9.70;99.90
37310;DHT22;23195;47.744;7.358;2023-02-23T07:03:46;9.70;99.90
37310;DHT22;23195;47.744;7.358;2023-02-23T07:06:16;9.80;99.90
37310;DHT22;23195;47.744;7.358;2023-02-23T07:08:45;9.80;99.90
37310;DHT22;23195;47.744;7.358;2023-02-23T07:11:15;9.80;99.90
37310;DHT22;23195;47.744;7.358;2023-02-23T07:13:42;10.30;99.90
37310;DHT22;23195;47.744;7.358;2023-02-23T07:16:11;9.90;99.90
37310;DHT22;23195;47.744;7.358;2023-02-23T07:18:39;9.90;99.90
37310;DHT22;23195;47.744;7.358;2023-02-23T07:21:05;9.90;99.90
37310;DHT22;23195;47.744;7.358;2023-02-23T07:23:30;9.90;99.90
37310;DHT22;23195;47.744;7.358;2023-02-23T07:25:56;9.90;99.90
37310;DHT22;23195;47.744;7.358;2023-02-23T07:28:22;10.00;99.90
37310;DHT22;23195;47.744;7.358;2023-02-23T07:30:50;10.00;99.90
37310;DHT22;23195;47.744;7.358;2023-02-23T07:33:16;10.00;99.90
37310;DHT22;23195;47.744;7.358;2023-02-23T07:35:42;10.10;99.90
37310;DHT22;23195;47.744;7.358;2023-02-23T07:38:09;10.10;99.90
37310;DHT22;23195;47.744;7.358;2023-02-23T07:40:35;10.10;99.90
37310;DHT22;23195;47.744;7.358;2023-02-23T07:43:01;10.10;99.90
37310;DHT22;23195;47.744;7.358;2023-02-23T07:45:35;10.10;99.90
37310;DHT22;23195;47.744;7.358;2023-02-23T07:48:04;10.20;99.90
37310;DHT22;23195;47.744;7.358;2023-02-23T07:50:32;10.20;99.90
37310;DHT22;23195;47.744;7.358;2023-02-23T07:53:09;10.30;99.90
37310;DHT22;23195;47.744;7.358;2023-02-23T07:55:40;10.50;99.90
37310;DHT22;23195;47.744;7.358;2023-02-23T07:58:06;10.60;99.90
37310;DHT22;23195;47.744;7.358;2023-02-23T08:00:34;10.60;99.90
37310;DHT22;23195;47.744;7.358;2023-02-23T08:03:01;10.80;99.90
37310;DHT22;23195;47.744;7.358;2023-02-23T08:05:27;11.00;99.90
37310;DHT22;23195;47.744;7.358;2023-02-23T08:08:03;11.10;99.90
37310;DHT22;23195;47.744;7.358;2023-02-23T08:10:29;11.20;99.90
37310;DHT22;23195;47.744;7.358;2023-02-23T08:12:56;11.30;99.90
37310;DHT22;23195;47.744;7.358;2023-02-23T08:15:25;11.50;99.90
37310;DHT22;23195;47.744;7.358;2023-02-23T08:17:50;11.70;99.90
37310;DHT22;23195;47.744;7.358;2023-02-23T08:20:19;11.90;99.90
37310;DHT22;23195;47.744;7.358;2023-02-23T08:22:52;12.20;99.90
37310;DHT22;23195;47.744;7.358;2023-02-23T08:25:18;12.40;99.90
37310;DHT22;23195;47.744;7.358;2023-02-23T08:27:44;12.50;99.90
37310;DHT22;23195;47.744;7.358;2023-02-23T08:30:22;12.60;99.90
37310;DHT22;23195;47.744;7.358;2023-02-23T08:32:49;12.70;99.90
37310;DHT22;23195;47.744;7.358;2023-02-23T08:35:18;12.70;99.90
37310;DHT22;23195;47.744;7.358;2023-02-23T08:37:47;12.70;99.90
37310;DHT22;23195;47.744;7.358;2023-02-23T08:40:13;12.80;99.90
37310;DHT22;23195;47.744;7.358;2023-02-23T08:42:53;12.70;99.90
37310;DHT22;23195;47.744;7.358;2023-02-23T08:45:27;12.00;99.90
37310;DHT22;23195;47.744;7.358;2023-02-23T08:47:59;12.80;99.90
37310;DHT22;23195;47.744;7.358;2023-02-23T08:50:25;12.60;99.90
37310;DHT22;23195;47.744;7.358;2023-02-23T08:52:51;12.60;99.90
37310;DHT22;23195;47.744;7.358;2023-02-23T08:55:19;12.50;99.90
37310;DHT22;23195;47.744;7.358;2023-02-23T08:57:46;12.50;99.90
37310;DHT22;23195;47.744;7.358;2023-02-23T09:00:39;12.60;99.90
37310;DHT22;23195;47.744;7.358;2023-02-23T09:03:05;12.60;99.90
37310;DHT22;23195;47.744;7.358;2023-02-23T09:05:35;12.40;99.90
37310;DHT22;23195;47.744;7.358;2023-02-23T09:08:03;12.70;99.90
37310;DHT22;23195;47.744;7.358;2023-02-23T09:10:29;12.60;99.90
37310;DHT22;23195;47.744;7.358;2023-02-23T09:12:56;12.70;99.90
37310;DHT22;23195;47.744;7.358;2023-02-23T09:15:25;12.90;99.90
37310;DHT22;23195;47.744;7.358;2023-02-23T09:17:51;13.00;99.90
37310;DHT22;23195;47.744;7.358;2023-02-23T09:20:19;13.20;99.90
37310;DHT22;23195;47.744;7.358;2023-02-23T09:22:50;13.10;99.90
37310;DHT22;23195;47.744;7.358;2023-02-23T09:25:18;13.10;99.90
37310;DHT22;23195;47.744;7.358;2023-02-23T09:27:52;13.00;99.90
37310;DHT22;23195;47.744;7.358;2023-02-23T09:30:31;13.40;99.90
37310;DHT22;23195;47.744;7.358;2023-02-23T09:32:59;13.40;99.90
37310;DHT22;23195;47.744;7.358;2023-02-23T09:35:25;13.60;99.90
37310;DHT22;23195;47.744;7.358;2023-02-23T09:37:53;13.90;99.90
37310;DHT22;23195;47.744;7.358;2023-02-23T09:40:34;14.70;99.90
37310;DHT22;23195;47.744;7.358;2023-02-23T09:48:41;14.90;99.90
37310;DHT22;23195;47.744;7.358;2023-02-23T09:51:17;15.10;99.90
37310;DHT22;23195;47.744;7.358;2023-02-23T09:53:52;15.20;99.90
37310;DHT22;23195;47.744;7.358;2023-02-23T09:56:34;15.20;99.90
37310;DHT22;23195;47.744;7.358;2023-02-23T09:59:15;14.70;99.90
37310;DHT22;23195;47.744;7.358;2023-02-23T10:01:50;14.70;99.90
37310;DHT22;23195;47.744;7.358;2023-02-23T10:04:27;14.60;99.90
37310;DHT22;23195;47.744;7.358;2023-02-23T10:07:19;14.50;99.90
37310;DHT22;23195;47.744;7.358;2023-02-23T10:24:13;14.70;99.90
37310;DHT22;23195;47.744;7.358;2023-02-23T10:27:23;14.70;99.90
37310;DHT22;23195;47.744;7.358;2023-02-23T10:30:35;14.70;99.90
37310;DHT22;23195;47.744;7.358;2023-02-23T10:36:33;14.60;99.90
37310;DHT22;23195;47.744;7.358;2023-02-23T10:39:00;14.50;99.90
37310;DHT22;23195;47.744;7.358;2023-02-23T10:44:26;14.40;99.90
37310;DHT22;23195;47.744;7.358;2023-02-23T10:50:10;14.40;99.90
37310;DHT22;23195;47.744;7.358;2023-02-23T10:53:03;14.40;99.90
37310;DHT22;23195;47.744;7.358;2023-02-23T10:55:33;14.60;99.90
37310;DHT22;23195;47.744;7.358;2023-02-23T11:00:54;14.60;99.90
37310;DHT22;23195;47.744;7.358;2023-02-23T11:03:49;14.60;99.90
37310;DHT22;23195;47.744;7.358;2023-02-23T11:06:33;14.70;99.90
37310;DHT22;23195;47.744;7.358;2023-02-23T11:09:27;14.90;99.90
37310;DHT22;23195;47.744;7.358;2023-02-23T11:12:01;15.00;99.90
37310;DHT22;23195;47.744;7.358;2023-02-23T11:14:29;15.00;99.90
37310;DHT22;23195;47.744;7.358;2023-02-23T11:16:57;14.90;99.90
37310;DHT22;23195;47.744;7.358;2023-02-23T11:19:32;14.80;99.90
37310;DHT22;23195;47.744;7.358;2023-02-23T11:22:03;14.90;99.90
37310;DHT22;23195;47.744;7.358;2023-02-23T11:24:35;15.00;99.90
37310;DHT22;23195;47.744;7.358;2023-02-23T11:27:21;14.90;99.90
37310;DHT22;23195;47.744;7.358;2023-02-23T11:29:51;15.00;99.90
37310;DHT22;23195;47.744;7.358;2023-02-23T11:32:31;14.90;99.90
37310;DHT22;23195;47.744;7.358;2023-02-23T11:35:26;14.90;99.90
37310;DHT22;23195;47.744;7.358;2023-02-23T11:37:55;14.90;99.90
37310;DHT22;23195;47.744;7.358;2023-02-23T11:40:33;14.90;99.90
37310;DHT22;23195;47.744;7.358;2023-02-23T11:43:12;14.10;99.90
37310;DHT22;23195;47.744;7.358;2023-02-23T11:45:53;13.50;99.90
37310;DHT22;23195;47.744;7.358;2023-02-23T11:48:22;15.10;99.90
37310;DHT22;23195;47.744;7.358;2023-02-23T11:51:25;15.10;99.90
37310;DHT22;23195;47.744;7.358;2023-02-23T11:53:59;15.50;99.90
37310;DHT22;23195;47.744;7.358;2023-02-23T11:56:28;15.10;99.90
37310;DHT22;23195;47.744;7.358;2023-02-23T11:59:06;15.10;99.90
37310;DHT22;23195;47.744;7.358;2023-02-23T12:04:32;15.20;99.90
37310;DHT22;23195;47.744;7.358;2023-02-23T12:09:48;15.40;99.90
37310;DHT22;23195;47.744;7.358;2023-02-23T12:12:20;15.50;99.90
37310;DHT22;23195;47.744;7.358;2023-02-23T12:14:52;15.60;99.90
37310;DHT22;23195;47.744;7.358;2023-02-23T12:17:27;15.60;99.90
37310;DHT22;23195;47.744;7.358;2023-02-23T12:20:14;15.50;99.90
37310;DHT22;23195;47.744;7.358;2023-02-23T12:23:06;15.40;99.90
37310;DHT22;23195;47.744;7.358;2023-02-23T12:29:22;15.40;99.90
37310;DHT22;23195;47.744;7.358;2023-02-23T12:32:00;15.30;99.90
37310;DHT22;23195;47.744;7.358;2023-02-23T12:34:50;15.20;99.90
37310;DHT22;23195;47.744;7.358;2023-02-23T12:40:39;15.30;99.90
37310;DHT22;23195;47.744;7.358;2023-02-23T12:43:47;15.20;99.90
37310;DHT22;23195;47.744;7.358;2023-02-23T12:46:28;15.30;99.90
37310;DHT22;23195;47.744;7.358;2023-02-23T12:49:29;15.20;99.90
37310;DHT22;23195;47.744;7.358;2023-02-23T12:54:45;15.60;99.90
37310;DHT22;23195;47.744;7.358;2023-02-23T12:58:00;15.60;99.90
37310;DHT22;23195;47.744;7.358;2023-02-23T13:07:00;15.70;99.90
37310;DHT22;23195;47.744;7.358;2023-02-23T13:09:54;15.70;99.90
37310;DHT22;23195;47.744;7.358;2023-02-23T13:15:47;16.70;99.90
37310;DHT22;23195;47.744;7.358;2023-02-23T13:18:23;15.90;99.90
37310;DHT22;23195;47.744;7.358;2023-02-23T13:24:06;15.90;99.90
37310;DHT22;23195;47.744;7.358;2023-02-23T13:27:00;16.00;99.90
37310;DHT22;23195;47.744;7.358;2023-02-23T13:29:38;15.90;99.90
37310;DHT22;23195;47.744;7.358;2023-02-23T13:32:27;15.70;99.90
37310;DHT22;23195;47.744;7.358;2023-02-23T13:35:14;15.70;99.90
37310;DHT22;23195;47.744;7.358;2023-02-23T13:38:10;15.70;99.90
37310;DHT22;23195;47.744;7.358;2023-02-23T13:40:56;15.60;99.90
37310;DHT22;23195;47.744;7.358;2023-02-23T13:43:31;15.50;99.90
37310;DHT22;23195;47.744;7.358;2023-02-23T13:51:55;15.80;99.90
37310;DHT22;23195;47.744;7.358;2023-02-23T13:54:25;15.70;99.90
37310;DHT22;23195;47.744;7.358;2023-02-23T13:56:58;16.00;99.90
37310;DHT22;23195;47.744;7.358;2023-02-23T13:59:28;15.70;99.90
37310;DHT22;23195;47.744;7.358;2023-02-23T14:01:59;15.70;99.90
37310;DHT22;23195;47.744;7.358;2023-02-23T14:04:39;15.60;99.90
37310;DHT22;23195;47.744;7.358;2023-02-23T14:07:15;15.90;99.90
37310;DHT22;23195;47.744;7.358;2023-02-23T14:10:07;15.70;99.90
37310;DHT22;23195;47.744;7.358;2023-02-23T14:12:38;15.70;99.90
37310;DHT22;23195;47.744;7.358;2023-02-23T14:20:53;15.80;99.90
37310;DHT22;23195;47.744;7.358;2023-02-23T14:25:51;15.90;99.90
37310;DHT22;23195;47.744;7.358;2023-02-23T14:36:27;15.60;99.90
37310;DHT22;23195;47.744;7.358;2023-02-23T14:44:40;15.40;99.90
37310;DHT22;23195;47.744;7.358;2023-02-23T14:47:19;15.40;99.90
37310;DHT22;23195;47.744;7.358;2023-02-23T14:49:49;15.40;99.90
37310;DHT22;23195;47.744;7.358;2023-02-23T14:52:32;15.20;99.90
37310;DHT22;23195;47.744;7.358;2023-02-23T14:55:15;15.20;99.90
37310;DHT22;23195;47.744;7.358;2023-02-23T14:57:44;15.20;99.90
37310;DHT22;23195;47.744;7.358;2023-02-23T15:00:19;15.10;99.90
37310;DHT22;23195;47.744;7.358;2023-02-23T15:03:07;15.10;99.90
37310;DHT22;23195;47.744;7.358;2023-02-23T15:05:55;15.10;99.90
37310;DHT22;23195;47.744;7.358;2023-02-23T15:08:23;15.20;99.90
37310;DHT22;23195;47.744;7.358;2023-02-23T15:11:02;15.10;99.90
37310;DHT22;23195;47.744;7.358;2023-02-23T15:13:40;15.00;99.90
37310;DHT22;23195;47.744;7.358;2023-02-23T15:16:19;14.90;99.90
37310;DHT22;23195;47.744;7.358;2023-02-23T15:18:47;14.90;99.90
37310;DHT22;23195;47.744;7.358;2023-02-23T15:21:20;14.80;99.90
37310;DHT22;23195;47.744;7.358;2023-02-23T15:24:27;14.80;99.90
37310;DHT22;23195;47.744;7.358;2023-02-23T15:26:56;14.60;99.90
37310;DHT22;23195;47.744;7.358;2023-02-23T15:29:31;14.60;99.90
37310;DHT22;23195;47.744;7.358;2023-02-23T15:32:11;14.60;99.90
37310;DHT22;23195;47.744;7.358;2023-02-23T15:34:39;14.50;99.90
37310;DHT22;23195;47.744;7.358;2023-02-23T15:37:12;14.50;99.90
37310;DHT22;23195;47.744;7.358;2023-02-23T15:39:48;14.40;99.90
37310;DHT22;23195;47.744;7.358;2023-02-23T15:42:25;14.40;99.90
37310;DHT22;23195;47.744;7.358;2023-02-23T15:45:01;14.30;99.90
37310;DHT22;23195;47.744;7.358;2023-02-23T15:47:32;14.20;99.90
37310;DHT22;23195;47.744;7.358;2023-02-23T15:50:15;14.20;99.90
37310;DHT22;23195;47.744;7.358;2023-02-23T15:52:48;14.10;99.90
37310;DHT22;23195;47.744;7.358;2023-02-23T15:55:26;14.10;99.90
37310;DHT22;23195;47.744;7.358;2023-02-23T15:57:57;14.10;99.90
37310;DHT22;23195;47.744;7.358;2023-02-23T16:00:38;14.00;99.90
37310;DHT22;23195;47.744;7.358;2023-02-23T16:03:05;14.00;99.90
37310;DHT22;23195;47.744;7.358;2023-02-23T16:05:36;13.90;99.90
37310;DHT22;23195;47.744;7.358;2023-02-23T16:08:15;14.50;99.90
37310;DHT22;23195;47.744;7.358;2023-02-23T16:10:50;13.80;99.90
37310;DHT22;23195;47.744;7.358;2023-02-23T16:13:20;13.80;99.90
37310;DHT22;23195;47.744;7.358;2023-02-23T16:15:53;13.70;99.90
37310;DHT22;23195;47.744;7.358;2023-02-23T16:18:32;13.70;99.90
37310;DHT22;23195;47.744;7.358;2023-02-23T16:20:59;13.70;99.90
37310;DHT22;23195;47.744;7.358;2023-02-23T16:23:36;13.60;99.90
37310;DHT22;23195;47.744;7.358;2023-02-23T16:26:17;13.60;99.90
37310;DHT22;23195;47.744;7.358;2023-02-23T16:28:46;13.50;99.90
37310;DHT22;23195;47.744;7.358;2023-02-23T16:31:21;13.40;99.90
37310;DHT22;23195;47.744;7.358;2023-02-23T16:33:52;12.90;99.90
37310;DHT22;23195;47.744;7.358;2023-02-23T16:36:23;13.20;99.90
37310;DHT22;23195;47.744;7.358;2023-02-23T16:39:08;13.10;99.90
37310;DHT22;23195;47.744;7.358;2023-02-23T16:41:35;13.00;99.90
37310;DHT22;23195;47.744;7.358;2023-02-23T16:44:03;12.80;99.90
37310;DHT22;23195;47.744;7.358;2023-02-23T16:46:31;12.80;99.90
37310;DHT22;23195;47.744;7.358;2023-02-23T16:48:57;12.70;99.90
37310;DHT22;23195;47.744;7.358;2023-02-23T16:51:34;12.60;99.90
37310;DHT22;23195;47.744;7.358;2023-02-23T16:54:00;12.40;99.90
37310;DHT22;23195;47.744;7.358;2023-02-23T16:56:28;12.40;99.90
37310;DHT22;23195;47.744;7.358;2023-02-23T16:59:00;12.50;99.90
37310;DHT22;23195;47.744;7.358;2023-02-23T17:01:36;12.50;99.90
37310;DHT22;23195;47.744;7.358;2023-02-23T17:04:02;11.30;99.90
37310;DHT22;23195;47.744;7.358;2023-02-23T17:06:31;10.90;99.90
37310;DHT22;23195;47.744;7.358;2023-02-23T17:08:56;12.30;99.90
37310;DHT22;23195;47.744;7.358;2023-02-23T17:11:22;12.30;99.90
37310;DHT22;23195;47.744;7.358;2023-02-23T17:13:48;12.30;99.90
37310;DHT22;23195;47.744;7.358;2023-02-23T17:16:14;12.20;99.90
37310;DHT22;23195;47.744;7.358;2023-02-23T17:18:40;10.80;99.90
37310;DHT22;23195;47.744;7.358;2023-02-23T17:21:08;12.00;99.90
37310;DHT22;23195;47.744;7.358;2023-02-23T17:23:38;12.10;99.90
37310;DHT22;23195;47.744;7.358;2023-02-23T17:26:13;11.90;99.90
37310;DHT22;23195;47.744;7.358;2023-02-23T17:28:42;11.90;99.90
37310;DHT22;23195;47.744;7.358;2023-02-23T17:31:09;11.80;99.90
37310;DHT22;23195;47.744;7.358;2023-02-23T17:33:35;11.70;99.90
37310;DHT22;23195;47.744;7.358;2023-02-23T17:36:10;11.70;99.90
37310;DHT22;23195;47.744;7.358;2023-02-23T17:38:36;11.60;99.90
37310;DHT22;23195;47.744;7.358;2023-02-23T17:41:38;11.60;99.90
37310;DHT22;23195;47.744;7.358;2023-02-23T17:44:04;11.50;99.90
37310;DHT22;23195;47.744;7.358;2023-02-23T17:46:30;10.70;99.90
37310;DHT22;23195;47.744;7.358;2023-02-23T17:48:59;11.40;99.90
37310;DHT22;23195;47.744;7.358;2023-02-23T17:51:25;11.30;99.90
37310;DHT22;23195;47.744;7.358;2023-02-23T17:53:51;11.20;99.90
37310;DHT22;23195;47.744;7.358;2023-02-23T17:56:19;11.10;99.90
37310;DHT22;23195;47.744;7.358;2023-02-23T18:02:29;11.00;99.90
37310;DHT22;23195;47.744;7.358;2023-02-23T18:05:35;10.80;99.90
37310;DHT22;23195;47.744;7.358;2023-02-23T18:08:02;10.70;99.90
37310;DHT22;23195;47.744;7.358;2023-02-23T18:10:39;10.50;99.90
37310;DHT22;23195;47.744;7.358;2023-02-23T18:13:04;10.40;99.90
37310;DHT22;23195;47.744;7.358;2023-02-23T18:15:31;10.40;99.90
37310;DHT22;23195;47.744;7.358;2023-02-23T18:17:59;10.30;99.90
37310;DHT22;23195;47.744;7.358;2023-02-23T18:20:27;10.20;99.90
37310;DHT22;23195;47.744;7.358;2023-02-23T18:22:53;10.20;99.90
37310;DHT22;23195;47.744;7.358;2023-02-23T18:25:20;10.20;99.90
37310;DHT22;23195;47.744;7.358;2023-02-23T18:27:50;9.30;99.90
37310;DHT22;23195;47.744;7.358;2023-02-23T18:30:20;10.00;99.90
37310;DHT22;23195;47.744;7.358;2023-02-23T18:32:46;9.50;99.90
37310;DHT22;23195;47.744;7.358;2023-02-23T18:35:13;10.00;99.90
37310;DHT22;23195;47.744;7.358;2023-02-23T18:37:38;9.90;99.90
37310;DHT22;23195;47.744;7.358;2023-02-23T18:40:17;10.00;99.90
37310;DHT22;23195;47.744;7.358;2023-02-23T18:42:50;10.00;99.90
37310;DHT22;23195;47.744;7.358;2023-02-23T18:45:16;10.00;99.90
37310;DHT22;23195;47.744;7.358;2023-02-23T18:47:42;10.00;99.90
37310;DHT22;23195;47.744;7.358;2023-02-23T18:50:09;9.90;99.90
37310;DHT22;23195;47.744;7.358;2023-02-23T18:52:40;10.10;99.90
37310;DHT22;23195;47.744;7.358;2023-02-23T18:55:07;10.40;99.90
37310;DHT22;23195;47.744;7.358;2023-02-23T18:57:33;10.10;99.90
37310;DHT22;23195;47.744;7.358;2023-02-23T18:59:59;10.00;99.90
37310;DHT22;23195;47.744;7.358;2023-02-23T19:02:35;10.00;99.90
37310;DHT22;23195;47.744;7.358;2023-02-23T19:05:00;10.80;99.90
37310;DHT22;23195;47.744;7.358;2023-02-23T19:07:30;9.90;99.90
37310;DHT22;23195;47.744;7.358;2023-02-23T19:09:56;9.80;99.90
37310;DHT22;23195;47.744;7.358;2023-02-23T19:12:30;9.80;99.90
37310;DHT22;23195;47.744;7.358;2023-02-23T19:15:01;9.80;99.90
37310;DHT22;23195;47.744;7.358;2023-02-23T19:17:36;9.90;99.90
37310;DHT22;23195;47.744;7.358;2023-02-23T19:20:02;10.00;99.90
37310;DHT22;23195;47.744;7.358;2023-02-23T19:22:32;10.00;99.90
37310;DHT22;23195;47.744;7.358;2023-02-23T19:24:58;10.00;99.90
37310;DHT22;23195;47.744;7.358;2023-02-23T19:27:42;10.00;99.90
37310;DHT22;23195;47.744;7.358;2023-02-23T19:30:08;10.00;99.90
37310;DHT22;23195;47.744;7.358;2023-02-23T19:32:35;9.60;99.90
37310;DHT22;23195;47.744;7.358;2023-02-23T19:35:08;9.90;99.90
37310;DHT22;23195;47.744;7.358;2023-02-23T19:37:35;9.80;99.90
37310;DHT22;23195;47.744;7.358;2023-02-23T19:40:08;9.70;99.90
37310;DHT22;23195;47.744;7.358;2023-02-23T19:42:49;9.60;99.90
37310;DHT22;23195;47.744;7.358;2023-02-23T19:45:18;9.60;99.90
37310;DHT22;23195;47.744;7.358;2023-02-23T19:47:44;9.50;99.90
37310;DHT22;23195;47.744;7.358;2023-02-23T19:50:16;9.40;99.90
37310;DHT22;23195;47.744;7.358;2023-02-23T19:52:46;9.50;99.90
37310;DHT22;23195;47.744;7.358;2023-02-23T19:55:19;9.40;99.90
37310;DHT22;23195;47.744;7.358;2023-02-23T19:57:47;9.40;99.90
37310;DHT22;23195;47.744;7.358;2023-02-23T20:00:18;9.30;99.90
37310;DHT22;23195;47.744;7.358;2023-02-23T20:02:44;9.40;99.90
37310;DHT22;23195;47.744;7.358;2023-02-23T20:05:23;9.30;99.90
37310;DHT22;23195;47.744;7.358;2023-02-23T20:07:50;9.20;99.90
37310;DHT22;23195;47.744;7.358;2023-02-23T20:10:17;9.20;99.90
37310;DHT22;23195;47.744;7.358;2023-02-23T20:13:07;9.10;99.90
37310;DHT22;23195;47.744;7.358;2023-02-23T20:15:33;9.10;99.90
37310;DHT22;23195;47.744;7.358;2023-02-23T20:18:04;9.10;99.90
37310;DHT22;23195;47.744;7.358;2023-02-23T20:20:37;9.00;99.90
37310;DHT22;23195;47.744;7.358;2023-02-23T20:23:11;8.10;99.90
37310;DHT22;23195;47.744;7.358;2023-02-23T20:25:42;8.60;99.90
37310;DHT22;23195;47.744;7.358;2023-02-23T20:28:08;9.00;99.90
37310;DHT22;23195;47.744;7.358;2023-02-23T20:30:34;8.90;99.90
37310;DHT22;23195;47.744;7.358;2023-02-23T20:33:04;9.00;99.90
37310;DHT22;23195;47.744;7.358;2023-02-23T20:35:35;9.00;99.90
37310;DHT22;23195;47.744;7.358;2023-02-23T20:38:01;9.00;99.90
37310;DHT22;23195;47.744;7.358;2023-02-23T20:40:34;9.10;99.90
37310;DHT22;23195;47.744;7.358;2023-02-23T20:43:03;9.00;99.90
37310;DHT22;23195;47.744;7.358;2023-02-23T20:45:29;9.00;99.90
37310;DHT22;23195;47.744;7.358;2023-02-23T20:47:58;9.00;99.90
37310;DHT22;23195;47.744;7.358;2023-02-23T20:50:28;9.00;99.90
37310;DHT22;23195;47.744;7.358;2023-02-23T20:52:58;8.90;99.90
37310;DHT22;23195;47.744;7.358;2023-02-23T20:55:30;8.80;99.90
37310;DHT22;23195;47.744;7.358;2023-02-23T20:57:57;8.80;99.90
37310;DHT22;23195;47.744;7.358;2023-02-23T21:00:24;8.90;99.90
37310;DHT22;23195;47.744;7.358;2023-02-23T21:03:01;8.80;99.90
37310;DHT22;23195;47.744;7.358;2023-02-23T21:05:39;8.80;99.90
37310;DHT22;23195;47.744;7.358;2023-02-23T21:08:07;7.70;99.90
37310;DHT22;23195;47.744;7.358;2023-02-23T21:10:36;8.70;99.90
37310;DHT22;23195;47.744;7.358;2023-02-23T21:13:12;8.70;99.90
37310;DHT22;23195;47.744;7.358;2023-02-23T21:16:15;8.60;99.90
37310;DHT22;23195;47.744;7.358;2023-02-23T21:18:42;8.60;99.90
37310;DHT22;23195;47.744;7.358;2023-02-23T21:21:14;8.60;99.90
37310;DHT22;23195;47.744;7.358;2023-02-23T21:23:41;8.50;99.90
37310;DHT22;23195;47.744;7.358;2023-02-23T21:26:12;8.40;99.90
37310;DHT22;23195;47.744;7.358;2023-02-23T21:28:43;8.40;99.90
37310;DHT22;23195;47.744;7.358;2023-02-23T21:31:11;8.40;99.90
37310;DHT22;23195;47.744;7.358;2023-02-23T21:33:41;8.40;99.90
37310;DHT22;23195;47.744;7.358;2023-02-23T21:36:09;8.30;99.90
37310;DHT22;23195;47.744;7.358;2023-02-23T21:38:40;8.30;99.90
37310;DHT22;23195;47.744;7.358;2023-02-23T21:41:11;8.30;99.90
37310;DHT22;23195;47.744;7.358;2023-02-23T21:43:39;8.30;99.90
37310;DHT22;23195;47.744;7.358;2023-02-23T21:46:11;8.30;99.90
37310;DHT22;23195;47.744;7.358;2023-02-23T21:48:37;8.30;99.90
37310;DHT22;23195;47.744;7.358;2023-02-23T21:51:09;8.50;99.90
37310;DHT22;23195;47.744;7.358;2023-02-23T21:53:39;8.70;99.90
37310;DHT22;23195;47.744;7.358;2023-02-23T21:59:14;8.80;99.90
37310;DHT22;23195;47.744;7.358;2023-02-23T22:01:46;8.80;99.90
37310;DHT22;23195;47.744;7.358;2023-02-23T22:04:29;8.80;99.90
37310;DHT22;23195;47.744;7.358;2023-02-23T22:06:55;8.90;99.90
37310;DHT22;23195;47.744;7.358;2023-02-23T22:09:29;8.80;99.90
37310;DHT22;23195;47.744;7.358;2023-02-23T22:14:58;8.90;99.90
37310;DHT22;23195;47.744;7.358;2023-02-23T22:17:57;9.00;99.90
37310;DHT22;23195;47.744;7.358;2023-02-23T22:20:23;9.00;99.90
37310;DHT22;23195;47.744;7.358;2023-02-23T22:22:51;8.50;99.90
37310;DHT22;23195;47.744;7.358;2023-02-23T22:25:26;9.10;99.90
37310;DHT22;23195;47.744;7.358;2023-02-23T22:28:29;9.20;99.90
37310;DHT22;23195;47.744;7.358;2023-02-23T22:31:06;9.30;99.90
37310;DHT22;23195;47.744;7.358;2023-02-23T22:33:33;9.20;99.90
37310;DHT22;23195;47.744;7.358;2023-02-23T22:36:04;9.20;99.90
37310;DHT22;23195;47.744;7.358;2023-02-23T22:38:36;7.60;99.90
37310;DHT22;23195;47.744;7.358;2023-02-23T22:41:03;9.20;99.90
37310;DHT22;23195;47.744;7.358;2023-02-23T22:43:37;9.00;99.90
37310;DHT22;23195;47.744;7.358;2023-02-23T22:46:03;9.50;99.90
37310;DHT22;23195;47.744;7.358;2023-02-23T22:48:31;9.30;99.90
37310;DHT22;23195;47.744;7.358;2023-02-23T22:50:57;9.30;99.90
37310;DHT22;23195;47.744;7.358;2023-02-23T22:53:26;9.20;99.90
37310;DHT22;23195;47.744;7.358;2023-02-23T22:55:53;9.20;99.90
37310;DHT22;23195;47.744;7.358;2023-02-23T22:58:21;9.20;99.90
37310;DHT22;23195;47.744;7.358;2023-02-23T23:00:48;9.20;99.90
37310;DHT22;23195;47.744;7.358;2023-02-23T23:03:36;9.30;99.90
37310;DHT22;23195;47.744;7.358;2023-02-23T23:06:08;9.30;99.90
37310;DHT22;23195;47.744;7.358;2023-02-23T23:08:41;9.40;99.90
37310;DHT22;23195;47.744;7.358;2023-02-23T23:11:13;9.30;99.90
37310;DHT22;23195;47.744;7.358;2023-02-23T23:13:51;9.30;99.90
37310;DHT22;23195;47.744;7.358;2023-02-23T23:16:22;9.30;99.90
37310;DHT22;23195;47.744;7.358;2023-02-23T23:18:58;9.30;99.90
37310;DHT22;23195;47.744;7.358;2023-02-23T23:21:27;9.30;99.90
37310;DHT22;23195;47.744;7.358;2023-02-23T23:23:58;8.70;99.90
37310;DHT22;23195;47.744;7.358;2023-02-23T23:26:25;9.20;99.90
37310;DHT22;23195;47.744;7.358;2023-02-23T23:29:00;9.30;99.90
37310;DHT22;23195;47.744;7.358;2023-02-23T23:31:27;9.30;99.90
37310;DHT22;23195;47.744;7.358;2023-02-23T23:33:56;9.30;99.90
37310;DHT22;23195;47.744;7.358;2023-02-23T23:36:27;9.40;99.90
37310;DHT22;23195;47.744;7.358;2023-02-23T23:39:03;9.30;99.90
37310;DHT22;23195;47.744;7.358;2023-02-23T23:41:32;9.20;99.90
37310;DHT22;23195;47.744;7.358;2023-02-23T23:44:00;9.20;99.90
37310;DHT22;23195;47.744;7.358;2023-02-23T23:46:32;9.30;99.90
37310;DHT22;23195;47.744;7.358;2023-02-23T23:49:06;9.30;99.90
37310;DHT22;23195;47.744;7.358;2023-02-23T23:51:38;9.30;99.90
37310;DHT22;23195;47.744;7.358;2023-02-23T23:54:06;9.20;99.90
37310;DHT22;23195;47.744;7.358;2023-02-23T23:56:38;9.20;99.90
37310;DHT22;23195;47.744;7.358;2023-02-23T23:59:07;9.20;99.90
